Pagrindinis puslapis
METAR-TAF:

METAR-TAF

Oro uostai :

Irkutskas, Rusija

platuma: 52-16N, ilguma: 104-19E, Aukštis: 513 m

Dabartinis oras

Ataskaita buvo paskelbta 21 minutes, ne 22:30 UTC
Vėjas 6 kt iš Rytų
Temperatūra 4°C
Drėgmė 100%
Slėgis 1022 hPa
Matomumas 10 km arba daugiau
nėra debesų žemiau 1500 m ir nėra kamuolinių lietaus debesų

METAR: UIII 192230Z 09003MPS CAVOK 04/04 Q1022 R12/CLRD60 NOSIG RMK QFE724/0965

Laikas: 06:51 (22:51 UTC)

Prognozė

Ataskaita buvo paskelbta 2 valandos ir 51 minutes, ne 20:00 UTC
Prognozė galioja nuo 19 metu 21 UTC su 20 metu 21 UTC
Vėjas 6 kt iš Rytų/Šiaurės Rytų
Matomumas 10 km arba daugiau
Laikinai
nuo 19 metu 21 UTC su 20 metu 03 UTC
Matomumas: 0300 m
ne aukštis 100 ft
rūkas

TAF: UIII 192000Z 1921/2021 07003MPS 9999 NSC TEMPO 1921/2003 0300 FG VV001

Orai ataskaitas ir orų prognozės (METAR, TAF).

turimą stotys yra geltonos ir raudonos taškus žemėlapyje.

Perkelti pele per norėdami pamatyti stoties vardą.

Tada spustelėkite, norėdami matyti oro stebėjimo ir prognozės.

Norėdami pakeisti žemėlapį: spustelėkite ant žalios mygtukų su juodo kryžiaus žemyn,; žalią mygtuką su brūkšneliu, jei norite nutolinti; arba žalių rodyklių gretimoms žemėlapius.


METAR-TAF: